Tiempo atmosférico en la estación meteorológica de Miguelañez, Segovia (870 m.)



Fecha
DESCASC
Temp. máxima en grados centígrados (hora)
DESCASC
Temp. mínima en grados centígrados (hora)
DESCASC
Temp. media en grados centígrados
DESCASC
Racha de viento máxima en m/sg (hora)
DESCASC
Velocidad máxima media en intervalos de 10 minutos(hora)
DESCASC
Precipitaciones diarias en mm
DESCASC
Precipitaciones de 00:00 a 06:00 en mm
DESCASC
Precipitaciones de 06:00 a 12:00 en mm
DESCASC
Precipitaciones de 12:00 a 18:00 en mm
DESCASC
Precipitaciones de 18:00 a 24:00 en mm
DESCASC
13-10-2019 24.1 (16:50) 15.3 (08:30) 19.7 14.72 (16:20) 11.11 (18:50) 0 0 0 0 0
12-10-2019 25.8 (17:40) 18 (21:40) 21.9 15.83 (00:30) 10.56 (17:00) 0 0 0 0 0
10-10-2019 25.7 (17:30) 5.6 (00:00) 15.7 5 (15:50) 3.61 (04:10) 0 0 0 0 0
09-10-2019 23.6 (17:20) 12.2 (00:00) 17.9 6.39 (02:20) 4.72 (04:30) 0 0 0 0 0
08-10-2019 28.5 (16:40) 11.7 (00:00) 20.1 9.72 (16:00) 5.83 (17:20) 0 0 0 0 0
07-10-2019 26.2 (17:20) 10.1 (00:00) 18.2 7.22 (04:00) 4.44 (04:10) 0 0 0 0 0
06-10-2019 23.9 (17:20) 11.9 (00:00) 17.9 7.5 (18:10) 5.28 (02:00) 0 0 0 0 0
05-10-2019 25.4 (17:10) 8.4 (08:20) 16.9 8.61 (16:40) 5 (18:50) 0 0 0 0 0
04-10-2019 22.7 (17:50) 12.4 (00:00) 17.6 8.61 (14:00) 6.11 (14:40) 0 0 0 0 0
03-10-2019 23.8 (18:30) 6.7 (00:00) 15.2 8.33 (16:40) 5.28 (14:50) 0 0 0 0 0
02-10-2019 20.3 (17:30) 8.3 (00:00) 14.3 8.89 (01:00) 5.83 (01:10) 0 0 0 0 0
01-10-2019 22.1 (15:30) 13.5 (00:00) 17.8 16.39 (17:10) 8.89 (15:50) 0 0 0 0 0
30-09-2019 28.3 (17:00) 9.7 (00:00) 19 8.61 (17:40) 5.28 (18:10) 0 0 0 0 0
29-09-2019 27.3 (17:00) 10.4 (00:00) 18.8 11.67 (16:00) 6.94 (16:00) 0 0 0 0 0
28-09-2019 27.3 (17:30) 8.2 (00:00) 17.7 6.94 (17:00) 4.44 (23:30) 0 0 0 0 0
27-09-2019 24.9 (17:40) 10 (00:00) 17.4 9.17 (16:20) 6.11 (16:20) 0 0 0 0 0
26-09-2019 25.7 (17:00) 9.8 (00:00) 17.8 11.67 (14:00) 6.94 (16:10) 0 0 0 0 0
25-09-2019 20.7 (17:30) 9.6 (00:00) 15.2 7.5 (00:50) 5.28 (00:10) 0 0 0 0 0
24-09-2019 21.7 (16:50) 9.9 (00:00) 15.8 11.11 (17:30) 8.33 (18:10) 0 0 0 0 0
23-09-2019 21.9 (17:30) 9.3 (00:00) 15.6 6.94 (15:20) 5 (16:20) 0 0 0 0 0
22-09-2019 19.1 (18:10) 10.9 (00:00) 15 13.33 (03:40) 9.44 (03:40) 1.8 1.8 0 0 0
21-09-2019 19.9 (12:40) 13.3 (00:00) 16.6 12.5 (12:00) 9.44 (17:30) 0.4 0 0 0.4 0
20-09-2019 25.4 (17:00) 15.9 (00:00) 20.6 13.89 (12:00) 9.44 (18:00) 0 0 0 0 0
19-09-2019 27.5 (17:20) 11.6 (00:00) 19.6 8.89 (15:10) 5.56 (18:50) 0 0 0 0 0
18-09-2019 25.6 (18:10) 12.9 (00:00) 19.3 9.72 (16:40) 5.83 (02:50) 0 0 0 0 0
17-09-2019 27.5 (16:00) 12.7 (00:00) 20.1 22.5 (20:00) 11.39 (20:50) 0.8 0 0 0 0.8

Gráficas

Temp. máximas Temp. mínimas Temp. medias Precipitaciones Rachas de viento máximas Velocidades máximas media en intervalos de 10 minutos

Datos horarios

Fecha y hora oficial Temperatura (ºC) Velocidad del viento (km/h) Dirección del viento Racha (km/h) Dirección de racha Precipitación (mm) Presión (hPa) Tendencia (hPa) Humedad (%)
2019-10-16 23:00:00 10.9 9 Sudoeste 17 Sudoeste 0 -- -- 71
2019-10-16 22:00:00 11.9 12 Sudoeste 24 Sudoeste 0 -- -- 65
2019-10-16 21:00:00 13.5 16 Sudoeste 22 Sudoeste 0 -- -- 58
2019-10-16 20:00:00 15.5 14 Sudoeste 23 Oeste 0 -- -- 51
2019-10-16 19:00:00 17 19 Oeste 31 Oeste 0 -- -- 42
2019-10-16 18:00:00 18.3 20 Oeste 33 Oeste 0 -- -- 36
2019-10-16 17:00:00 18.3 23 Oeste 31 Oeste 0 -- -- 30
2019-10-16 16:00:00 17.8 17 Oeste 32 Oeste 0 -- -- 36
2019-10-16 15:00:00 16.9 23 Oeste 35 Sudoeste 0 -- -- 36
2019-10-16 14:00:00 16.1 21 Sudoeste 33 Sudoeste 0 -- -- 40
2019-10-16 13:00:00 14.3 15 Oeste 30 Oeste 0 -- -- 53
2019-10-16 12:00:00 13.5 19 Sudoeste 29 Sudoeste 0 -- -- 58
2019-10-16 11:00:00 11.5 18 Sur 25 Sur 0 -- -- 67
2019-10-16 10:00:00 10.1 12 Sur 19 Sur 0 -- -- 71
2019-10-16 09:00:00 8.6 10 Sudoeste 19 Sudoeste 0 -- -- 77
2019-10-16 08:00:00 8.5 14 Sudoeste 23 Sudoeste 0 -- -- 77
2019-10-16 07:00:00 8.8 13 Sur 20 Sur 0 -- -- 74
2019-10-16 06:00:00 8.9 13 Sur 21 Sur 0 -- -- 72
2019-10-16 05:00:00 9.2 14 Sur 20 Sur 0 -- -- 70
2019-10-16 04:00:00 9.5 12 Sur 18 Sur 0 -- -- 69
2019-10-16 03:00:00 9.7 13 Sur 17 Sur 0 -- -- 68
2019-10-16 02:00:00 9.8 12 Sur 18 Sur 0 -- -- 68
2019-10-16 01:00:00 10.3 13 Sur 18 Sur 0 -- -- 66
2019-10-16 00:00:00 10.3 12 Sur 17 Sur 0 -- -- 65
2019-10-15 23:00:00 10 12 Sur 15 Sur 0 -- -- 67
2019-10-15 22:00:00 10.1 11 Sur 15 Sur 0 -- -- 65
2019-10-15 21:00:00 10.7 8 Sudoeste 9 Sudoeste 0 -- -- 62
2019-10-15 20:00:00 11.5 7 Sudoeste 18 Oeste 0 -- -- 59
2019-10-15 19:00:00 12.6 19 Oeste 30 Oeste 0 -- -- 53
2019-10-15 18:00:00 13.7 19 Oeste 42 Oeste 0 -- -- 48
2019-10-15 17:00:00 13.6 21 Oeste 30 Oeste 0 -- -- 51
2019-10-15 16:00:00 12.5 19 Oeste 28 Sudoeste 0 -- -- 55
2019-10-15 15:00:00 12 17 Sudoeste 29 Oeste 0 -- -- 56
2019-10-15 14:00:00 11.2 19 Oeste 27 Oeste 0 -- -- 63
2019-10-15 13:00:00 10.8 16 Oeste 24 Oeste 0 -- -- 66
2019-10-15 12:00:00 9.4 15 Oeste 27 Oeste 0 -- -- 77
2019-10-15 11:00:00 8.3 12 Sudoeste 21 Sudoeste 0 -- -- 81
2019-10-15 10:00:00 6.2 10 Sudoeste 20 Sudoeste 0 -- -- 87
2019-10-15 09:00:00 4.2 16 Sudoeste 22 Sudoeste 0 -- -- 91
2019-10-15 08:00:00 4.4 14 Sudoeste 20 Sudoeste 0 -- -- 90
2019-10-15 07:00:00 4.5 14 Sudoeste 21 Sudoeste 0 -- -- 89
2019-10-15 06:00:00 4.7 16 Sudoeste 24 Sudoeste 0 -- -- 88
2019-10-15 05:00:00 4.9 17 Sudoeste 24 Sudoeste 0 -- -- 89
2019-10-15 04:00:00 5.3 20 Sudoeste 29 Sudoeste 0 -- -- 88
2019-10-15 03:00:00 5.7 17 Sudoeste 38 Sudoeste 0 -- -- 86
2019-10-15 02:00:00 6.1 22 Sudoeste 30 Sudoeste 0 -- -- 87
2019-10-15 01:00:00 6.1 19 Sudoeste 30 Oeste 0 -- -- 88
2019-10-15 00:00:00 6.4 17 Sudoeste 26 Sudoeste 0 -- -- 91
2019-10-14 23:00:00 6.6 14 Sudoeste 27 Sudoeste 0 -- -- 91
2019-10-14 22:00:00 7.5 22 Oeste 47 Oeste 0.2 -- -- 88
2019-10-14 21:00:00 7.9 22 Sudoeste 32 Oeste 0 -- -- 83
2019-10-14 20:00:00 8.7 15 Sudoeste 35 Sudoeste 0.2 -- -- 87
2019-10-14 19:00:00 8.9 22 Oeste 32 Oeste 0 -- -- 83
2019-10-14 18:00:00 9.1 25 Sudoeste 58 Oeste 0.8 -- -- 85
2019-10-14 17:00:00 9.8 39 Oeste 66 Oeste 0.2 -- -- 88
2019-10-14 16:00:00 14.4 45 Oeste 75 Oeste 0 -- -- 57
2019-10-14 15:00:00 15.3 50 Oeste 64 Oeste 0 -- -- 53
2019-10-14 14:00:00 16.3 24 Oeste 34 Sudoeste 0 -- -- 61
2019-10-14 13:00:00 13.8 14 Oeste 21 Oeste 0 -- -- 79
2019-10-14 12:00:00 11.1 10 Oeste 31 Oeste 0.2 -- -- 90
2019-10-14 11:00:00 9.8 29 Oeste 61 Sur 0.4 -- -- 90
2019-10-14 10:00:00 16.5 33 Sur 54 Sur 0 -- -- 54
2019-10-14 09:00:00 17.5 33 Sudoeste 49 Sur 0 -- -- 52
2019-10-14 08:00:00 17.3 20 Sur 36 Sur 0 -- -- 58
2019-10-14 07:00:00 18 23 Sur 33 Sur 0 -- -- 53
2019-10-14 06:00:00 18.3 22 Sur 37 Sudeste 0 -- -- 50
2019-10-14 05:00:00 18.8 27 Sur 36 Sur 0 -- -- 49
2019-10-14 04:00:00 18.3 16 Sudeste 27 Sudeste 0 -- -- 51
2019-10-14 03:00:00 18.4 26 Sudeste 38 Sudeste 0 -- -- 51
2019-10-14 02:00:00 18.9 30 Sur 41 Sudeste 0 -- -- 50
2019-10-14 01:00:00 18.2 27 Sudeste 36 Sudeste 0 -- -- 52
2019-10-14 00:00:00 18.5 14 Sur 27 Sur 0 -- -- 52
2019-10-13 23:00:00 18.1 23 Sur 34 Sur 0 -- -- 50
2019-10-13 22:00:00 18.1 25 Sur 33 Sur 0 -- -- 50
2019-10-13 21:00:00 18.3 24 Sur 42 Sudeste 0 -- -- 50
2019-10-13 20:00:00 19.4 34 Sur 52 Sudeste 0 -- -- 46
2019-10-13 19:00:00 20.9 40 Sur 53 Sudeste 0 -- -- 41
2019-10-13 18:00:00 22.8 34 Sur 53 Sur 0 -- -- 36
2019-10-13 17:00:00 23.9 36 Sur 53 Sudeste 0 -- -- 34
2019-10-13 16:00:00 23.8 36 Sur 50 Sudeste 0 -- -- 35
2019-10-13 15:00:00 23.6 31 Sur 48 Sur 0 -- -- 34
2019-10-13 14:00:00 22.8 35 Sur 48 Sur 0 -- -- 37
2019-10-13 13:00:00 21.4 37 Sur 50 Sur 0 -- -- 42
2019-10-13 12:00:00 20.4 36 Sur 46 Sur 0 -- -- 48
2019-10-13 11:00:00 18.3 10 Sudoeste 28 Sur 0 -- -- 57
2019-10-13 10:00:00 16.8 11 Sur 23 Sudoeste 0 -- -- 68
2019-10-13 09:00:00 15.4 13 Sur 41 Sur 0 -- -- 74
2019-10-13 08:00:00 15.8 28 Sur 41 Sur 0 -- -- 74
2019-10-13 07:00:00 15.9 26 Sudeste 40 Sudeste 0 -- -- 74
2019-10-13 06:00:00 16.6 28 Sudeste 42 Sudeste 0 -- -- 71
2019-10-13 05:00:00 16.7 28 Sudeste 42 Sudeste 0 -- -- 67
2019-10-13 04:00:00 17.1 32 Sur 44 Sur 0 -- -- 58
2019-10-13 03:00:00 17 31 Sudeste 47 Sudeste 0 -- -- 57
2019-10-13 02:00:00 17.6 36 Sudeste 47 Sudeste 0 -- -- 54
2019-10-13 01:00:00 18.1 30 Sudeste 49 Sudeste 0 -- -- 51
2019-10-13 00:00:00 18.4 35 Sudeste 50 Sur 0 -- -- 50
2019-10-12 23:00:00 18.6 33 Sudeste 47 Sudeste 0 -- -- 51
2019-10-12 22:00:00 18.7 26 Sudeste 35 Sudeste 0 -- -- 56
2019-10-12 21:00:00 19.5 30 Sudeste 46 Sudeste 0 -- -- 54
2019-10-12 20:00:00 21.1 36 Sudeste 55 Sur 0 -- -- 46
2019-10-12 19:00:00 24.5 28 Sur 46 Sur 0 -- -- 36
2019-10-12 18:00:00 25.4 35 Sur 53 Sur 0 -- -- 35
2019-10-12 17:00:00 25.7 38 Sudeste 54 Sur 0 -- -- 36
2019-10-12 16:00:00 24.8 28 Sudeste 45 Sudeste 0 -- -- 38
2019-10-12 15:00:00 24.2 32 Sur 49 Sur 0 -- -- 38
2019-10-12 14:00:00 24.7 33 Sur 48 Sur 0 -- -- 34
2019-10-12 13:00:00 24.9 34 Sur 51 Sur 0 -- -- 34
2019-10-12 12:00:00 24 29 Sur 41 Sur 0 -- -- 37
2019-10-12 11:00:00 22 28 Sudeste 37 Sudeste 0 -- -- 44
2019-10-12 10:00:00 19.5 25 Sudeste 32 Sudeste 0 -- -- 55
2019-10-12 09:00:00 19.5 19 Sudeste 32 Sudeste 0 -- -- 55
2019-10-12 08:00:00 19.7 27 Sudeste 40 Sudeste 0 -- -- 56
2019-10-12 07:00:00 19.9 8 Sudoeste 16 Sudoeste 0 -- -- 53
2019-10-12 06:00:00 20.3 10 Sudoeste 32 Sur 0 -- -- 51
2019-10-12 05:00:00 21.1 22 Sudeste 35 Sur 0 -- -- 48
2019-10-12 04:00:00 20.8 24 Sudeste 43 Sudeste 0 -- -- 52
2019-10-12 03:00:00 20.9 24 Sudeste 36 Sudeste 0 -- -- 57
2019-10-12 02:00:00 21.2 22 Sur 33 Sur 0 -- -- 58
2019-10-12 01:00:00 21.7 14 Sur 57 Sur 0 -- -- 56
2019-10-12 00:00:00 20.2 12 Sur 28 Sur 0 -- -- 58
2019-10-11 23:00:00 21 23 Sur 31 Sudeste 0 -- -- 56
2019-10-11 22:00:00 20.8 22 Sur 35 Sur 0 -- -- 56
2019-10-11 21:00:00 21.8 21 Sur 31 Sudeste 0 -- -- 53
2019-10-11 20:00:00 23 23 Sur 41 Sudeste 0 -- -- 49
2019-10-11 19:00:00 25 28 Sur 42 Sur 0 -- -- 43
2019-10-11 18:00:00 26.5 31 Sur 44 Sudeste 0 -- -- 40
2019-10-11 17:00:00 27.6 25 Sur 41 Sur 0 -- -- 37
2019-10-11 16:00:00 27.5 22 Sur 41 Sur 0 -- -- 38
2019-10-11 15:00:00 27.2 21 Sudoeste 34 Sudoeste 0 -- -- 38
2019-10-11 14:00:00 27.1 15 Sudoeste 26 Sudoeste 0 -- -- 37
2019-10-11 13:00:00 26 12 Sudoeste 24 Sur 0 -- -- 40
2019-10-11 12:00:00 24.6 12 Sudoeste 18 Sudoeste 0 -- -- 46
2019-10-11 11:00:00 20 5 Noroeste 10 Noroeste 0 -- -- 58
2019-10-11 10:00:00 16.8 2 Norte 20 Sur 0 -- -- 66
2019-10-11 09:00:00 18.5 15 Sur 23 Sur 0 -- -- 65
2019-10-11 08:00:00 18.1 16 Sur 26 Sur 0 -- -- 67
2019-10-11 07:00:00 17.6 15 Sur 19 Sudoeste 0 -- -- 68
2019-10-11 06:00:00 15.9 9 Sudoeste 15 Sudoeste 0 -- -- 69
2019-10-11 05:00:00 14.4 8 Sudoeste 13 Sudoeste 0 -- -- 63
2019-10-11 04:00:00 14.4 3 Noroeste 31 Sudeste 0 -- -- 58
2019-10-11 03:00:00 17.8 18 Sur 23 Sur 0 -- -- 54
2019-10-11 02:00:00 13.5 13 Sudeste 17 Sudeste 0 -- -- 55
2019-10-11 01:00:00 13.6 13 Sudeste 17 Sudeste 0 -- -- 53
2019-10-11 00:00:00 13.8 10 Sudeste 16 Sudeste 0 -- -- 51
2019-10-10 23:00:00 15.6 0 Calma 4 Sudeste 0 -- -- 46
2019-10-10 22:00:00 17.1 3 Sudeste 6 Noroeste 0 -- -- 42
2019-10-10 21:00:00 20.6 4 Oeste 8 Noroeste 0 -- -- 35
2019-10-10 20:00:00 22 7 Noroeste 11 Noroeste 0 -- -- 33
2019-10-10 19:00:00 25 7 Noroeste 12 Noroeste 0 -- -- 29
2019-10-10 18:00:00 25.7 3 Noroeste 13 Norte 0 -- -- 31
2019-10-10 17:00:00 25.4 6 Norte 16 Norte 0 -- -- 32
2019-10-10 16:00:00 24.4 8 Noroeste 18 Noroeste 0 -- -- 33
2019-10-10 15:00:00 23.6 5 Sudoeste 13 Norte 0 -- -- 35
2019-10-10 14:00:00 22.5 5 Este 12 Nordeste 0 -- -- 35
2019-10-10 13:00:00 19.8 5 Norte 11 Nordeste 0 -- -- 43
2019-10-10 12:00:00 17.6 4 Este 14 Sudeste 0 -- -- 50
2019-10-10 11:00:00 14.1 8 Sudeste 14 Este 0 -- -- 61
2019-10-10 10:00:00 9.2 3 Nordeste 6 Este 0 -- -- 79
2019-10-10 09:00:00 6.4 0 Calma 5 Noroeste 0 -- -- 90
2019-10-10 08:00:00 6.1 0 Calma 11 Sudeste 0 -- -- 82
2019-10-10 07:00:00 6.9 7 Este 13 Este 0 -- -- 85
2019-10-10 06:00:00 6.9 5 Sudeste 9 Nordeste 0 -- -- 85
2019-10-10 05:00:00 6.9 3 Nordeste 17 Sudeste 0 -- -- 83
2019-10-10 04:00:00 9.5 11 Sudeste 14 Sudeste 0 -- -- 78
2019-10-10 03:00:00 9.5 7 Sudeste 11 Nordeste 0 -- -- 78
2019-10-10 02:00:00 10.2 7 Nordeste 13 Nordeste 0 -- -- 74
2019-10-10 01:00:00 11.1 4 Este 13 Nordeste 0 -- -- 71
2019-10-10 00:00:00 12.2 8 Nordeste 12 Nordeste 0 -- -- 68
2019-10-09 23:00:00 13.3 10 Nordeste 17 Nordeste 0 -- -- 63
2019-10-09 22:00:00 14.8 12 Nordeste 18 Nordeste 0 -- -- 56
2019-10-09 21:00:00 16.9 11 Nordeste 21 Norte 0 -- -- 50
2019-10-09 20:00:00 19.2 13 Noroeste 18 Noroeste 0 -- -- 41
2019-10-09 19:00:00 22.4 10 Noroeste 18 Noroeste 0 -- -- 37
2019-10-09 18:00:00 23.2 12 Noroeste 20 Noroeste 0 -- -- 37
2019-10-09 17:00:00 23.4 11 Norte 20 Norte 0 -- -- 38
2019-10-09 16:00:00 23.1 6 Norte 22 Oeste 0 -- -- 41
2019-10-09 15:00:00 21.7 8 Oeste 23 Oeste 0 -- -- 45
2019-10-09 14:00:00 20.1 8 Oeste 18 Oeste 0 -- -- 54
2019-10-09 13:00:00 19.6 6 Sudeste 14 Noroeste 0 -- -- 57
2019-10-09 12:00:00 17.9 4 Nordeste 10 Norte 0 -- -- 65
2019-10-09 11:00:00 15.6 2 Nordeste 20 Noroeste 0 -- -- 77
2019-10-09 10:00:00 13.7 15 Noroeste 22 Oeste 0 -- -- 80
2019-10-09 09:00:00 13.6 7 Oeste 10 Oeste 0 -- -- 85
2019-10-09 08:00:00 14 6 Oeste 12 Oeste 0 -- -- 84
2019-10-09 07:00:00 14 9 Sudoeste 17 Sudoeste 0 -- -- 86
2019-10-09 06:00:00 13.8 12 Sudoeste 21 Sudoeste 0 -- -- 83
2019-10-09 05:00:00 15 16 Sudoeste 22 Sudoeste 0 -- -- 80
2019-10-09 04:00:00 15.6 12 Sudoeste 19 Sudoeste 0 -- -- 73
2019-10-09 03:00:00 16.6 15 Sudoeste 23 Sudoeste 0 -- -- 66
2019-10-09 02:00:00 18.2 16 Sudoeste 22 Sudoeste 0 -- -- 60
2019-10-09 01:00:00 18.9 15 Sudoeste 21 Sudoeste 0 -- -- 58
2019-10-09 00:00:00 20 13 Sudoeste 19 Sudoeste 0 -- -- 54
2019-10-08 23:00:00 20.7 11 Sudoeste 16 Oeste 0 -- -- 51
2019-10-08 22:00:00 21.3 12 Oeste 15 Oeste 0 -- -- 48
2019-10-08 21:00:00 22.9 9 Oeste 13 Oeste 0 -- -- 41
2019-10-08 20:00:00 23.9 12 Oeste 22 Oeste 0 -- -- 37
2019-10-08 19:00:00 27.4 16 Oeste 31 Oeste 0 -- -- 31
2019-10-08 18:00:00 28.2 18 Oeste 31 Oeste 0 -- -- 30
2019-10-08 17:00:00 28.3 21 Oeste 31 Oeste 0 -- -- 29
2019-10-08 16:00:00 28.1 19 Oeste 35 Oeste 0 -- -- 30
2019-10-08 15:00:00 27.6 16 Oeste 28 Oeste 0 -- -- 32
2019-10-08 14:00:00 26.3 14 Sudoeste 24 Sudoeste 0 -- -- 34
2019-10-08 13:00:00 24.7 11 Oeste 19 Sudoeste 0 -- -- 33
2019-10-08 12:00:00 23 9 Oeste 17 Oeste 0 -- -- 37
2019-10-08 11:00:00 20.1 8 Sudoeste 13 Sudoeste 0 -- -- 43
2019-10-08 10:00:00 17.5 6 Sudeste 15 Sudeste 0 -- -- 49
2019-10-08 09:00:00 12.1 9 Sudeste 14 Sudeste 0 -- -- 61
2019-10-08 08:00:00 12.1 7 Sudeste 21 Sudeste 0 -- -- 59
2019-10-08 07:00:00 12.5 18 Sudeste 22 Sudeste 0 -- -- 59
2019-10-08 06:00:00 13.1 10 Sudeste 22 Sudeste 0 -- -- 55
2019-10-08 05:00:00 14 11 Sudeste 27 Sudeste 0 -- -- 53
2019-10-08 04:00:00 13.1 15 Sudeste 21 Sudeste 0 -- -- 55
2019-10-08 03:00:00 13.8 14 Sudeste 22 Sudeste 0 -- -- 54
2019-10-08 02:00:00 13.4 16 Sudeste 22 Sudeste 0 -- -- 54
2019-10-08 01:00:00 14.9 14 Sudeste 22 Sudeste 0 -- -- 50
2019-10-08 00:00:00 15.9 14 Sudeste 18 Sudeste 0 -- -- 47
2019-10-07 23:00:00 16.6 12 Sudeste 17 Sudeste 0 -- -- 44
2019-10-07 22:00:00 17.6 3 Este 9 Sudeste 0 -- -- 42
2019-10-07 21:00:00 20.8 0 Calma 8 Noroeste 0 -- -- 36
2019-10-07 20:00:00 22.7 8 Noroeste 11 Noroeste 0 -- -- 34
2019-10-07 19:00:00 25.5 6 Norte 14 Noroeste 0 -- -- 30
2019-10-07 18:00:00 26.1 10 Norte 20 Norte 0 -- -- 30
2019-10-07 17:00:00 26.1 8 Noroeste 20 Noroeste 0 -- -- 30
2019-10-07 16:00:00 25.9 9 Norte 20 Norte 0 -- -- 29
2019-10-07 15:00:00 25.3 7 Nordeste 19 Norte 0 -- -- 26
2019-10-07 14:00:00 23.4 6 Noroeste 14 Noroeste 0 -- -- 29
2019-10-07 13:00:00 21.9 7 Nordeste 13 Nordeste 0 -- -- 35
2019-10-07 12:00:00 19 7 Oeste 13 Oeste 0 -- -- 46
2019-10-07 11:00:00 16.1 8 Sudoeste 12 Sudoeste 0 -- -- 54
2019-10-07 10:00:00 14.4 4 Sudoeste 9 Sudoeste 0 -- -- 59
2019-10-07 09:00:00 10.9 0 Calma 14 Sur 0 -- -- 67
2019-10-07 08:00:00 10.1 3 Sudeste 7 Sudeste 0 -- -- 69
2019-10-07 07:00:00 10.9 3 Sudeste 7 Sudoeste 0 -- -- 67
2019-10-07 06:00:00 11.9 6 Sudoeste 13 Sudoeste 0 -- -- 63
2019-10-07 05:00:00 12.6 10 Sudoeste 20 Sudoeste 0 -- -- 60
2019-10-07 04:00:00 14 14 Sudoeste 26 Sudoeste 0 -- -- 55
2019-10-07 03:00:00 14.5 8 Sudoeste 21 Sudoeste 0 -- -- 53
2019-10-07 02:00:00 15.9 14 Sur 20 Sur 0 -- -- 51
2019-10-07 01:00:00 16.5 14 Sudoeste 16 Sudoeste 0 -- -- 48
2019-10-07 00:00:00 15.9 0 Calma 6 Sudeste 0 -- -- 51
2019-10-06 23:00:00 15 3 Nordeste 6 Nordeste 0 -- -- 51
2019-10-06 22:00:00 16.5 0 Calma 7 Oeste 0 -- -- 47
2019-10-06 21:00:00 18.8 6 Oeste 10 Noroeste 0 -- -- 43
2019-10-06 20:00:00 19.8 10 Noroeste 27 Oeste 0 -- -- 40
2019-10-06 19:00:00 22.9 18 Oeste 27 Oeste 0 -- -- 35
2019-10-06 18:00:00 23.7 14 Noroeste 24 Oeste 0 -- -- 36
2019-10-06 17:00:00 23.8 12 Oeste 23 Oeste 0 -- -- 34
2019-10-06 16:00:00 23.4 11 Oeste 21 Oeste 0 -- -- 36
2019-10-06 15:00:00 21.9 10 Oeste 15 Oeste 0 -- -- 41
2019-10-06 14:00:00 19.7 9 Oeste 20 Oeste 0 -- -- 47
2019-10-06 13:00:00 17.7 14 Oeste 19 Noroeste 0 -- -- 54
2019-10-06 12:00:00 16.9 10 Oeste 23 Oeste 0 -- -- 57
2019-10-06 11:00:00 15.7 10 Oeste 16 Sudoeste 0 -- -- 59
2019-10-06 10:00:00 13.4 11 Sur 19 Sudoeste 0 -- -- 69
2019-10-06 09:00:00 12.1 16 Sudoeste 22 Sudoeste 0 -- -- 68
2019-10-06 08:00:00 12.3 16 Sur 23 Sur 0 -- -- 65
2019-10-06 07:00:00 12.9 14 Sur 21 Sudoeste 0 -- -- 64
2019-10-06 06:00:00 13.5 12 Sudoeste 19 Sur 0 -- -- 65
2019-10-06 05:00:00 13.9 16 Sur 21 Sur 0 -- -- 60
2019-10-06 04:00:00 14.4 13 Sudoeste 20 Sudoeste 0 -- -- 60
2019-10-06 03:00:00 14.4 15 Sur 22 Sur 0 -- -- 60
2019-10-06 02:00:00 14.5 19 Sur 22 Sur 0 -- -- 57
2019-10-06 01:00:00 15 15 Sudoeste 19 Sudoeste 0 -- -- 55
2019-10-06 00:00:00 16.2 10 Sudoeste 15 Oeste 0 -- -- 53
2019-10-05 23:00:00 17.7 10 Sudoeste 15 Sudoeste 0 -- -- 49
2019-10-05 22:00:00 17.6 11 Sudoeste 18 Sudoeste 0 -- -- 52
2019-10-05 21:00:00 18.2 2 Nordeste 9 Oeste 0 -- -- 48
2019-10-05 20:00:00 20.8 9 Oeste 21 Oeste 0 -- -- 43
2019-10-05 19:00:00 23.8 16 Oeste 25 Oeste 0 -- -- 36
2019-10-05 18:00:00 25.1 14 Oeste 26 Oeste 0 -- -- 31
2019-10-05 17:00:00 25 10 Noroeste 31 Oeste 0 -- -- 35
2019-10-05 16:00:00 24.6 14 Oeste 24 Oeste 0 -- -- 35
2019-10-05 15:00:00 23.7 11 Oeste 20 Oeste 0 -- -- 40
2019-10-05 14:00:00 22.6 7 Noroeste 16 Noroeste 0 -- -- 45
2019-10-05 13:00:00 21.1 5 Oeste 11 Noroeste 0 -- -- 52
2019-10-05 12:00:00 18.8 5 Noroeste 13 Sudoeste 0 -- -- 60
2019-10-05 11:00:00 16.6 7 Sudoeste 12 Oeste 0 -- -- 68
2019-10-05 10:00:00 14.3 5 Sudoeste 9 Sudoeste 0 -- -- 76
2019-10-05 09:00:00 9.8 5 Sudeste 11 Sudeste 0 -- -- 90
2019-10-05 08:00:00 9 6 Sudeste 9 Sudoeste 0 -- -- 87
2019-10-05 07:00:00 10.8 6 Sur 9 Sudoeste 0 -- -- 85
2019-10-05 06:00:00 11 5 Sudeste 15 Sudoeste 0 -- -- 84
2019-10-05 05:00:00 12.9 11 Sudoeste 14 Sudoeste 0 -- -- 81
2019-10-05 04:00:00 12 8 Sudeste 12 Este 0 -- -- 85
2019-10-05 03:00:00 12.2 9 Sudeste 15 Sudeste 0 -- -- 85
2019-10-05 02:00:00 13.4 9 Sudeste 11 Este 0 -- -- 80
2019-10-05 01:00:00 15 10 Sudeste 18 Sudeste 0 -- -- 76
2019-10-05 00:00:00 14.9 15 Sudeste 18 Sudeste 0 -- -- 75
2019-10-04 23:00:00 15.4 13 Sudeste 15 Sudeste 0 -- -- 71
2019-10-04 22:00:00 15.6 6 Sudeste 8 Sudeste 0 -- -- 67
2019-10-04 21:00:00 17.9 0 Calma 10 Oeste 0 -- -- 60
2019-10-04 20:00:00 20.3 9 Oeste 20 Sudoeste 0 -- -- 54
2019-10-04 19:00:00 22.2 15 Sudoeste 23 Sudoeste 0 -- -- 50
2019-10-04 18:00:00 22.6 15 Sudoeste 26 Oeste 0 -- -- 48
2019-10-04 17:00:00 22.2 17 Oeste 25 Sudoeste 0 -- -- 55
2019-10-04 16:00:00 21.3 15 Oeste 29 Oeste 0 -- -- 58
2019-10-04 15:00:00 21.1 21 Oeste 29 Oeste 0 -- -- 59
2019-10-04 14:00:00 20.5 21 Oeste 31 Noroeste 0 -- -- 61
2019-10-04 13:00:00 19.1 15 Oeste 28 Oeste 0 -- -- 68
2019-10-04 12:00:00 17.8 12 Oeste 26 Oeste 0 -- -- 72
2019-10-04 11:00:00 16 10 Oeste 21 Sudoeste 0 -- -- 77
2019-10-04 10:00:00 15 8 Oeste 15 Sudoeste 0 -- -- 79
2019-10-04 09:00:00 13.5 13 Sudoeste 17 Sudoeste 0 -- -- 75
2019-10-04 08:00:00 13.5 3 Sudoeste 15 Sudoeste 0 -- -- 72
2019-10-04 07:00:00 14.4 13 Sur 17 Sudoeste 0 -- -- 72
2019-10-04 06:00:00 12.6 12 Sur 18 Sudeste 0 -- -- 73
2019-10-04 05:00:00 13.4 12 Sudeste 26 Sudoeste 0 -- -- 64
2019-10-04 04:00:00 15.1 19 Sudoeste 31 Sudoeste 0 -- -- 58
2019-10-04 03:00:00 15.2 19 Sur 24 Sur 0 -- -- 53
2019-10-04 02:00:00 15.9 16 Sudoeste 19 Sudoeste 0 -- -- 48
2019-10-04 01:00:00 16 14 Sudoeste 22 Sudoeste 0 -- -- 46
2019-10-04 00:00:00 14.1 10 Sudeste 19 Sudeste 0 -- -- 51
2019-10-03 23:00:00 15.1 14 Sudeste 19 Sudeste 0 -- -- 46
2019-10-03 22:00:00 15.3 6 Sudeste 9 Sudeste 0 -- -- 45
2019-10-03 21:00:00 17.1 4 Sudeste 6 Sudeste 0 -- -- 41
2019-10-03 20:00:00 21.4 5 Noroeste 20 Oeste 0 -- -- 34
2019-10-03 19:00:00 23.1 14 Oeste 23 Oeste 0 -- -- 30
2019-10-03 18:00:00 23.7 15 Oeste 30 Oeste 0 -- -- 30
2019-10-03 17:00:00 23.3 19 Oeste 30 Oeste 0 -- -- 31
2019-10-03 16:00:00 22.9 10 Oeste 27 Oeste 0 -- -- 33
2019-10-03 15:00:00 21.6 12 Oeste 29 Oeste 0 -- -- 35
2019-10-03 14:00:00 20.7 9 Oeste 20 Noroeste 0 -- -- 37
2019-10-03 13:00:00 19.7 6 Oeste 16 Sudoeste 0 -- -- 41
2019-10-03 12:00:00 17.6 6 Oeste 15 Sudoeste 0 -- -- 46
2019-10-03 11:00:00 15.2 8 Oeste 12 Oeste 0 -- -- 53
2019-10-03 10:00:00 12.7 6 Sudoeste 14 Sur 0 -- -- 60
2019-10-03 09:00:00 8.1 4 Sudeste 7 Sur 0 -- -- 75
2019-10-03 08:00:00 7.5 6 Sudeste 10 Sudeste 0 -- -- 76
2019-10-03 07:00:00 7 10 Sudeste 12 Sudeste 0 -- -- 76
2019-10-03 06:00:00 7.9 7 Sudeste 15 Sudeste 0 -- -- 74
2019-10-03 05:00:00 8.2 8 Sudeste 18 Sudeste 0 -- -- 73
2019-10-03 04:00:00 9 14 Sudeste 20 Sudeste 0 -- -- 71
2019-10-03 03:00:00 8.8 6 Sudeste 8 Sudeste 0 -- -- 71
2019-10-03 02:00:00 9.6 3 Este 10 Sudeste 0 -- -- 67
2019-10-03 01:00:00 10.3 13 Sudeste 17 Sudeste 0 -- -- 65
2019-10-03 00:00:00 10.5 12 Sudeste 19 Sudeste 0 -- -- 62
2019-10-02 23:00:00 12.2 3 Sudeste 4 Sudeste 0 -- -- 57
2019-10-02 22:00:00 13.2 0 Calma 4 Oeste 0 -- -- 53
2019-10-02 21:00:00 16 2 Oeste 6 Noroeste 0 -- -- 46
2019-10-02 20:00:00 17.8 6 Noroeste 12 Noroeste 0 -- -- 41
2019-10-02 19:00:00 19.4 10 Noroeste 19 Norte 0 -- -- 39
2019-10-02 18:00:00 19.9 8 Noroeste 19 Norte 0 -- -- 39
2019-10-02 17:00:00 19.9 6 Sudeste 19 Nordeste 0 -- -- 40
2019-10-02 16:00:00 18.7 12 Noroeste 23 Noroeste 0 -- -- 42
2019-10-02 15:00:00 18.2 5 Norte 20 Norte 0 -- -- 44
2019-10-02 14:00:00 17.7 6 Nordeste 20 Norte 0 -- -- 48
2019-10-02 13:00:00 15.2 7 Oeste 15 Oeste 0 -- -- 55
2019-10-02 12:00:00 14 6 Norte 16 Oeste 0 -- -- 63
2019-10-02 11:00:00 12 7 Oeste 19 Oeste 0 -- -- 73
2019-10-02 10:00:00 10 11 Sudoeste 15 Sudoeste 0 -- -- 90
2019-10-02 09:00:00 8.5 11 Sudoeste 15 Sudoeste 0 -- -- 93
2019-10-02 08:00:00 8.5 12 Sudoeste 18 Sudoeste 0 -- -- 91
2019-10-02 07:00:00 8.8 13 Sudoeste 19 Oeste 0 -- -- 90
2019-10-02 06:00:00 9.6 15 Sudoeste 20 Sudoeste 0 -- -- 87
2019-10-02 05:00:00 10.1 13 Sudoeste 19 Sudoeste 0 -- -- 85
2019-10-02 04:00:00 10.8 10 Sudoeste 19 Sudoeste 0 -- -- 81
2019-10-02 03:00:00 11.5 13 Oeste 24 Sudoeste 0 -- -- 78
2019-10-02 02:00:00 12.9 17 Oeste 28 Oeste 0 -- -- 73
2019-10-02 01:00:00 14 20 Oeste 32 Oeste 0 -- -- 67
2019-10-02 00:00:00 14.2 15 Oeste 22 Oeste 0 -- -- 63
2019-10-01 23:00:00 15 16 Oeste 24 Oeste 0 -- -- 60
2019-10-01 22:00:00 16.6 14 Sudoeste 19 Sudoeste 0 -- -- 55
2019-10-01 21:00:00 17.6 13 Sudoeste 21 Oeste 0 -- -- 52
2019-10-01 20:00:00 19.6 19 Oeste 34 Oeste 0 -- -- 46
2019-10-01 19:00:00 21.3 21 Oeste 39 Oeste 0 -- -- 45
2019-10-01 18:00:00 21.5 25 Oeste 59 Oeste 0 -- -- 47
2019-10-01 17:00:00 21.8 26 Oeste 44 Oeste 0 -- -- 47
2019-10-01 16:00:00 20.9 32 Oeste 52 Noroeste 0 -- -- 53
2019-10-01 15:00:00 20.8 30 Oeste 40 Oeste 0 -- -- 53
2019-10-01 14:00:00 20.3 24 Oeste 35 Oeste 0 -- -- 56
2019-10-01 13:00:00 18.3 20 Oeste 27 Sudoeste 0 -- -- 60
2019-10-01 12:00:00 17.3 17 Oeste 28 Sudoeste 0 -- -- 68
2019-10-01 11:00:00 15.9 23 Oeste 29 Oeste 0 -- -- 75
2019-10-01 10:00:00 14.6 19 Oeste 24 Oeste 0 -- -- 86
2019-10-01 09:00:00 13.6 13 Sudoeste 21 Sudoeste 0 -- -- 87
2019-10-01 08:00:00 13.9 15 Sudoeste 23 Sudoeste 0 -- -- 80
2019-10-01 07:00:00 15 18 Sudoeste 25 Sudoeste 0 -- -- 62
2019-10-01 06:00:00 16.5 14 Sudoeste 23 Sudoeste 0 -- -- 54
2019-10-01 05:00:00 16.5 16 Sudoeste 27 Sur 0 -- -- 53
2019-10-01 04:00:00 16.9 18 Sudoeste 28 Sudoeste 0 -- -- 47
2019-10-01 03:00:00 18.4 17 Sur 21 Sur 0 -- -- 37
2019-10-01 02:00:00 17.8 10 Sur 17 Sur 0 -- -- 37
2019-10-01 01:00:00 17.9 15 Sudeste 20 Sur 0 -- -- 37
2019-10-01 00:00:00 19.3 13 Sudoeste 26 Sur 0 -- -- 35
2019-09-30 23:00:00 21.1 17 Sur 24 Sur 0 -- -- 33
2019-09-30 22:00:00 22.3 15 Sur 23 Sudoeste 0 -- -- 36
2019-09-30 21:00:00 23.4 5 Oeste 7 Oeste 0 -- -- 34
2019-09-30 20:00:00 24.6 7 Oeste 19 Oeste 0 -- -- 32
2019-09-30 19:00:00 27 15 Oeste 29 Oeste 0 -- -- 28
2019-09-30 18:00:00 27.7 17 Oeste 31 Oeste 0 -- -- 27
2019-09-30 17:00:00 28.3 15 Oeste 28 Oeste 0 -- -- 26
2019-09-30 16:00:00 27.7 10 Oeste 28 Oeste 0 -- -- 26
2019-09-30 15:00:00 27.5 5 Sur 18 Oeste 0 -- -- 29
2019-09-30 14:00:00 25.8 6 Oeste 13 Sudoeste 0 -- -- 32
2019-09-30 13:00:00 23.5 5 Oeste 12 Noroeste 0 -- -- 40
2019-09-30 12:00:00 21.9 4 Norte 10 Norte 0 -- -- 46
2019-09-30 11:00:00 19.9 3 Este 12 Sudeste 0 -- -- 49
2019-09-30 10:00:00 15.7 9 Sudeste 15 Sudeste 0 -- -- 58
2019-09-30 09:00:00 10.9 11 Sudeste 14 Sudeste 0 -- -- 64
2019-09-30 08:00:00 9.9 9 Sudeste 12 Sudeste 0 -- -- 65
2019-09-30 07:00:00 10.6 5 Sudeste 13 Sudeste 0 -- -- 65
2019-09-30 06:00:00 11.6 6 Sudeste 14 Sudoeste 0 -- -- 58
2019-09-30 05:00:00 15.8 12 Sudoeste 17 Sudoeste 0 -- -- 55
2019-09-30 04:00:00 16.7 16 Sudoeste 20 Sudoeste 0 -- -- 50
2019-09-30 03:00:00 13.8 9 Sudeste 15 Sur 0 -- -- 51
2019-09-30 02:00:00 14 8 Sudeste 13 Este 0 -- -- 46
2019-09-30 01:00:00 15.9 7 Sur 12 Sur 0 -- -- 42
2019-09-30 00:00:00 19.8 9 Sudoeste 17 Sudoeste 0 -- -- 36
2019-09-29 23:00:00 20.7 12 Sudoeste 19 Sudoeste 0 -- -- 29
2019-09-29 22:00:00 21.7 15 Sudoeste 20 Sudoeste 0 -- -- 27
2019-09-29 21:00:00 22.3 12 Sudoeste 15 Sudoeste 0 -- -- 24
2019-09-29 20:00:00 24.2 9 Sudoeste 21 Oeste 0 -- -- 20
2019-09-29 19:00:00 26.4 16 Oeste 27 Oeste 0 -- -- 17
2019-09-29 18:00:00 26.9 19 Oeste 31 Oeste 0 -- -- 19
2019-09-29 17:00:00 27.3 21 Oeste 32 Sudoeste 0 -- -- 20
2019-09-29 16:00:00 26.4 25 Oeste 42 Sudoeste 0 -- -- 27
2019-09-29 15:00:00 26 18 Sudoeste 37 Oeste 0 -- -- 28
2019-09-29 14:00:00 24.5 17 Oeste 33 Oeste 0 -- -- 33
2019-09-29 13:00:00 24.3 18 Oeste 29 Oeste 0 -- -- 31
2019-09-29 12:00:00 22.8 8 Oeste 15 Sudoeste 0 -- -- 33
2019-09-29 11:00:00 20.4 8 Sudoeste 13 Sudoeste 0 -- -- 37
2019-09-29 10:00:00 17.9 3 Sudeste 19 Sudeste 0 -- -- 44
2019-09-29 09:00:00 12.2 11 Sudeste 15 Sudeste 0 -- -- 57
2019-09-29 08:00:00 10.7 12 Sudeste 16 Este 0 -- -- 60
2019-09-29 07:00:00 11.1 12 Sudeste 20 Sudeste 0 -- -- 59
2019-09-29 06:00:00 16.6 14 Sur 19 Sur 0 -- -- 44
2019-09-29 05:00:00 12.7 11 Sudeste 19 Sudoeste 0 -- -- 55
2019-09-29 04:00:00 17.8 15 Sudoeste 22 Sur 0 -- -- 40
2019-09-29 03:00:00 15.2 12 Sur 17 Sur 0 -- -- 48
2019-09-29 02:00:00 16.5 10 Sur 18 Sur 0 -- -- 44
2019-09-29 01:00:00 15.5 2 Sudeste 20 Sudeste 0 -- -- 45
2019-09-29 00:00:00 16.5 16 Sudeste 21 Sudeste 0 -- -- 43
2019-09-28 23:00:00 16.3 15 Sudeste 21 Sudeste 0 -- -- 41
2019-09-28 22:00:00 18 4 Sudeste 6 Sudeste 0 -- -- 38
2019-09-28 21:00:00 20.2 5 Sudeste 10 Oeste 0 -- -- 33
2019-09-28 20:00:00 23.3 10 Oeste 20 Oeste 0 -- -- 26
2019-09-28 19:00:00 26.1 15 Oeste 22 Oeste 0 -- -- 22
2019-09-28 18:00:00 26.8 14 Oeste 23 Noroeste 0 -- -- 22
2019-09-28 17:00:00 27.2 8 Oeste 25 Oeste 0 -- -- 22
2019-09-28 16:00:00 26.4 12 Noroeste 24 Oeste 0 -- -- 24
2019-09-28 15:00:00 25.2 9 Noroeste 21 Oeste 0 -- -- 32
2019-09-28 14:00:00 23.4 10 Noroeste 18 Oeste 0 -- -- 39
2019-09-28 13:00:00 22 6 Norte 12 Este 0 -- -- 47
2019-09-28 12:00:00 20.1 4 Sudeste 10 Sudeste 0 -- -- 54
2019-09-28 11:00:00 17.8 4 Sudeste 12 Sudeste 0 -- -- 63
2019-09-28 10:00:00 14.1 0 Calma 8 Este 0 -- -- 76
2019-09-28 09:00:00 10.1 3 Sudeste 17 Sudeste 0 -- -- 84
2019-09-28 08:00:00 8.8 13 Sudeste 20 Sudeste 0 -- -- 88
2019-09-28 07:00:00 8.6 12 Sudeste 15 Sudeste 0 -- -- 85
2019-09-28 06:00:00 12.4 5 Sudoeste 10 Sudoeste 0 -- -- 81
2019-09-28 05:00:00 13.1 10 Sudoeste 14 Sudoeste 0 -- -- 78
2019-09-28 04:00:00 12.4 4 Sudeste 13 Sur 0 -- -- 77
2019-09-28 03:00:00 11.7 7 Sudeste 12 Sudeste 0 -- -- 78
2019-09-28 02:00:00 12.7 6 Sudeste 14 Sudoeste 0 -- -- 73
2019-09-28 01:00:00 15.5 8 Oeste 19 Sudoeste 0 -- -- 68
2019-09-28 00:00:00 16.5 10 Oeste 18 Oeste 0 -- -- 64
2019-09-27 23:00:00 17.5 7 Oeste 19 Oeste 0 -- -- 55
2019-09-27 22:00:00 19.1 11 Sudoeste 16 Oeste 0 -- -- 44
2019-09-27 21:00:00 19.9 13 Sudoeste 17 Sudoeste 0 -- -- 38
2019-09-27 20:00:00 22 15 Oeste 27 Oeste 0 -- -- 32
2019-09-27 19:00:00 24.2 19 Oeste 30 Oeste 0 -- -- 28
2019-09-27 18:00:00 24.6 17 Oeste 30 Oeste 0 -- -- 24
2019-09-27 17:00:00 24.5 16 Oeste 33 Oeste 0 -- -- 25
2019-09-27 16:00:00 24.3 16 Oeste 29 Oeste 0 -- -- 26
2019-09-27 15:00:00 23.4 19 Oeste 29 Sudoeste 0 -- -- 32
2019-09-27 14:00:00 22.3 12 Oeste 23 Sudoeste 0 -- -- 39
2019-09-27 13:00:00 20.8 9 Oeste 21 Oeste 0 -- -- 42
2019-09-27 12:00:00 19.1 9 Oeste 15 Oeste 0 -- -- 47
2019-09-27 11:00:00 17.3 8 Oeste 15 Oeste 0 -- -- 54
2019-09-27 10:00:00 15.3 12 Oeste 17 Oeste 0 -- -- 56
2019-09-27 09:00:00 12.8 10 Sur 14 Sur 0 -- -- 58
2019-09-27 08:00:00 10.4 7 Sudeste 14 Sudoeste 0 -- -- 64
2019-09-27 07:00:00 12.3 10 Sudeste 18 Sudoeste 0 -- -- 57
2019-09-27 06:00:00 14.7 11 Sudoeste 15 Sudoeste 0 -- -- 51
2019-09-27 05:00:00 12.4 10 Sur 14 Sur 0 -- -- 56
2019-09-27 04:00:00 13.5 9 Sur 16 Sur 0 -- -- 54
2019-09-27 03:00:00 16 12 Sur 20 Sur 0 -- -- 45
2019-09-27 02:00:00 16.9 16 Sudoeste 22 Sudoeste 0 -- -- 41
2019-09-27 01:00:00 17.5 16 Sudoeste 20 Sur 0 -- -- 39
2019-09-27 00:00:00 18.9 13 Sudoeste 18 Sudoeste 0 -- -- 33
2019-09-26 23:00:00 19.8 14 Sudoeste 18 Sudoeste 0 -- -- 34
2019-09-26 22:00:00 18.5 6 Sudoeste 9 Sudoeste 0 -- -- 37
2019-09-26 21:00:00 21.2 5 Oeste 14 Oeste 0 -- -- 31
2019-09-26 20:00:00 23 13 Oeste 31 Oeste 0 -- -- 28
2019-09-26 19:00:00 24.9 19 Oeste 31 Oeste 0 -- -- 26
2019-09-26 18:00:00 25.3 23 Oeste 36 Oeste 0 -- -- 29
2019-09-26 17:00:00 25.7 21 Oeste 38 Oeste 0 -- -- 33
2019-09-26 16:00:00 25.6 23 Oeste 39 Oeste 0 -- -- 36
2019-09-26 15:00:00 24.9 22 Oeste 35 Oeste 0 -- -- 35
2019-09-26 14:00:00 24.1 19 Oeste 42 Sudoeste 0 -- -- 35
2019-09-26 13:00:00 21.8 10 Sudoeste 18 Oeste 0 -- -- 45
2019-09-26 12:00:00 18.8 8 Sudoeste 14 Sur 0 -- -- 58
2019-09-26 11:00:00 16.2 5 Oeste 11 Oeste 0 -- -- 68
2019-09-26 10:00:00 14.4 5 Sudoeste 8 Sudoeste 0 -- -- 74
2019-09-26 09:00:00 11.4 5 Sudeste 9 Este 0 -- -- 84
2019-09-26 08:00:00 10 8 Sudeste 16 Sudeste 0 -- -- 87
2019-09-26 07:00:00 11.1 7 Sudeste 17 Sudoeste 0 -- -- 80
2019-09-26 06:00:00 12.4 12 Sudoeste 16 Sudoeste 0 -- -- 78
2019-09-26 05:00:00 12.9 13 Sudoeste 21 Sudoeste 0 -- -- 75
2019-09-26 04:00:00 13.5 13 Sudoeste 18 Sudoeste 0 -- -- 71
2019-09-26 03:00:00 14.4 9 Sudoeste 16 Sudoeste 0 -- -- 65
2019-09-26 02:00:00 12.4 6 Oeste 15 Este 0 -- -- 71
2019-09-26 01:00:00 13.8 12 Sudeste 22 Sudeste 0 -- -- 67
2019-09-26 00:00:00 13.7 12 Sudeste 17 Sudeste 0 -- -- 68
2019-09-25 23:00:00 14 5 Sudeste -- -- 0 -- -- 66
2019-09-25 22:00:00 15.5 0 Calma 9 Oeste 0 -- -- 60
2019-09-25 21:00:00 16.6 5 Oeste 9 Oeste 0 -- -- 55
2019-09-25 20:00:00 18.2 5 Oeste 17 Oeste 0 -- -- 50
2019-09-25 19:00:00 19.5 13 Noroeste 21 Oeste 0 -- -- 47
2019-09-25 18:00:00 20.3 9 Noroeste 17 Oeste 0 -- -- 45
2019-09-25 17:00:00 20.3 8 Oeste 22 Oeste 0 -- -- 45
2019-09-25 16:00:00 19.7 10 Oeste 24 Oeste 0 -- -- 46
2019-09-25 15:00:00 18.7 6 Sudoeste 20 Oeste 0 -- -- 48
2019-09-25 14:00:00 17.3 4 Oeste 17 Sudoeste 0 -- -- 53
2019-09-25 13:00:00 16.2 8 Sur 17 Oeste 0 -- -- 56
2019-09-25 12:00:00 14.4 6 Noroeste 16 Oeste 0 -- -- 63
2019-09-25 11:00:00 13.1 7 Oeste 16 Sudoeste 0 -- -- 70
2019-09-25 10:00:00 11.4 10 Sudoeste 14 Sudoeste 0 -- -- 86
2019-09-25 09:00:00 9.9 10 Sudoeste 15 Sudoeste 0 -- -- 92
2019-09-25 08:00:00 10 12 Sudoeste 17 Sudoeste 0 -- -- 91
2019-09-25 07:00:00 10.4 11 Sudoeste 17 Sudoeste 0 -- -- 90
2019-09-25 06:00:00 11 13 Sudoeste 18 Sudoeste 0 -- -- 88
2019-09-25 05:00:00 11.7 8 Sudoeste 15 Oeste 0 -- -- 84
2019-09-25 04:00:00 12.5 4 Oeste 15 Oeste 0 -- -- 81
2019-09-25 03:00:00 12.5 15 Oeste 23 Oeste 0 -- -- 81
2019-09-25 02:00:00 13.4 15 Sudoeste 23 Oeste 0 -- -- 78
2019-09-25 01:00:00 14.4 14 Oeste 27 Oeste 0 -- -- 80
2019-09-25 00:00:00 15.6 21 Oeste 30 Sudoeste 0 -- -- 79
2019-09-24 23:00:00 16.5 18 Sudoeste 28 Sudoeste 0 -- -- 79
2019-09-24 22:00:00 17 17 Sudoeste 26 Sudoeste 0 -- -- 81
2019-09-24 21:00:00 17.8 18 Sudoeste 33 Sudoeste 0 -- -- 79
2019-09-24 20:00:00 19.2 21 Sudoeste 35 Sudoeste 0 -- -- 75
2019-09-24 19:00:00 19.1 22 Sudoeste 39 Oeste 0 -- -- 75
2019-09-24 18:00:00 20 25 Oeste 40 Oeste 0 -- -- 71
2019-09-24 17:00:00 21.3 24 Oeste 36 Oeste 0 -- -- 65
2019-09-24 16:00:00 20.3 22 Oeste 38 Oeste 0 -- -- 68
2019-09-24 15:00:00 21.1 28 Oeste 37 Oeste 0 -- -- 63
2019-09-24 14:00:00 20.5 19 Oeste 31 Oeste 0 -- -- 62
2019-09-24 13:00:00 19.1 12 Sudoeste 20 Sudoeste 0 -- -- 60
2019-09-24 12:00:00 17.7 11 Sudoeste 20 Oeste 0 -- -- 57
2019-09-24 11:00:00 17.1 12 Oeste 18 Sudoeste 0 -- -- 59
2019-09-24 10:00:00 15.2 10 Sudoeste 15 Sudoeste 0 -- -- 64
2019-09-24 09:00:00 11.7 6 Sudeste 12 Sur 0 -- -- 78
2019-09-24 08:00:00 10.1 7 Sur 16 Sudoeste 0 -- -- 79
2019-09-24 07:00:00 11.6 9 Sur 15 Sudoeste 0 -- -- 74
2019-09-24 06:00:00 13 8 Sur 15 Sudoeste 0 -- -- 70
2019-09-24 05:00:00 13 12 Sudoeste 19 Sudoeste 0 -- -- 66
2019-09-24 04:00:00 13.7 15 Sudoeste 24 Sudoeste 0 -- -- 65
2019-09-24 03:00:00 14.5 16 Sudoeste 23 Sudoeste 0 -- -- 62
2019-09-24 02:00:00 15.4 15 Sudoeste 21 Sudoeste 0 -- -- 59
2019-09-24 01:00:00 16.4 13 Sudoeste 18 Sudoeste 0 -- -- 59
2019-09-24 00:00:00 15.5 8 Sudeste 17 Sur 0 -- -- 65
2019-09-23 23:00:00 17.2 13 Sur 15 Sur 0 -- -- 58
2019-09-23 22:00:00 17.9 11 Sudoeste 12 Sudoeste 0 -- -- 56
2019-09-23 21:00:00 18.4 8 Sudoeste 10 Oeste 0 -- -- 53
2019-09-23 20:00:00 20.1 10 Oeste 20 Oeste 0 -- -- 47
2019-09-23 19:00:00 21.2 13 Oeste 23 Oeste 0 -- -- 43
2019-09-23 18:00:00 21.4 15 Oeste 24 Oeste 0 -- -- 41
2019-09-23 17:00:00 21.5 15 Sudoeste 25 Oeste 0 -- -- 41
2019-09-23 16:00:00 21.6 14 Oeste 25 Oeste 0 -- -- 38
2019-09-23 15:00:00 20.8 14 Sudoeste 23 Sudoeste 0 -- -- 37
2019-09-23 14:00:00 19.6 4 Sudeste 17 Sudoeste 0 -- -- 51
2019-09-23 13:00:00 18.1 7 Sudoeste 17 Sudoeste 0 -- -- 57
2019-09-23 12:00:00 15.8 4 Sudoeste 13 Sur 0 -- -- 64
2019-09-23 11:00:00 14.5 6 Sur 13 Sudeste 0 -- -- 71
2019-09-23 10:00:00 12.1 7 Sudeste 14 Sudeste 0 -- -- 83
2019-09-23 09:00:00 9.7 6 Este 15 Sur 0 -- -- 87
2019-09-23 08:00:00 10.3 11 Sur 17 Sur 0 -- -- 84
2019-09-23 07:00:00 9.6 8 Sur 16 Sur 0 -- -- 85
2019-09-23 06:00:00 10.8 14 Sur 16 Sur 0 -- -- 81
2019-09-23 05:00:00 11.2 10 Sudoeste 18 Sudoeste 0 -- -- 77
2019-09-23 04:00:00 11.9 8 Sur 18 Sudoeste 0 -- -- 71
2019-09-23 03:00:00 12.3 12 Sudoeste 18 Sudoeste 0 -- -- 67
2019-09-23 02:00:00 12.8 16 Sur 20 Sur 0 -- -- 65
2019-09-23 01:00:00 13.2 14 Sur 17 Sur 0 -- -- 63
2019-09-23 00:00:00 13.8 11 Sudoeste 16 Sur 0 -- -- 64
2019-09-22 23:00:00 13.9 7 Sudoeste 15 Sudoeste 0 -- -- 65
2019-09-22 22:00:00 14.3 10 Sudoeste 15 Sudoeste 0 -- -- 64
2019-09-22 21:00:00 15.3 5 Oeste 15 Oeste 0 -- -- 59
2019-09-22 20:00:00 16.6 13 Oeste 25 Oeste 0 -- -- 55
2019-09-22 19:00:00 18.4 24 Oeste 33 Oeste 0 -- -- 50
2019-09-22 18:00:00 18.7 19 Oeste 31 Sudoeste 0 -- -- 50
2019-09-22 17:00:00 18.7 19 Oeste 35 Oeste 0 -- -- 53
2019-09-22 16:00:00 16.9 17 Oeste 33 Oeste 0 -- -- 60
2019-09-22 15:00:00 16.5 23 Oeste 29 Oeste 0 -- -- 66
2019-09-22 14:00:00 16.2 16 Oeste 24 Sudoeste 0 -- -- 67
2019-09-22 13:00:00 15.2 14 Sudoeste 21 Sudoeste 0 -- -- 72
2019-09-22 12:00:00 13.7 8 Oeste 14 Oeste 0 -- -- 79
2019-09-22 11:00:00 13.1 5 Sudoeste 13 Sudoeste 0 -- -- 84
2019-09-22 10:00:00 12.4 8 Sudoeste 13 Sudoeste 0 -- -- 91
2019-09-22 09:00:00 11.8 9 Sur 16 Sur 0 -- -- 94
2019-09-22 08:00:00 11.6 13 Sur 19 Sur 0 -- -- 94
2019-09-22 07:00:00 11.3 11 Sur 15 Sudoeste 0 -- -- 96
2019-09-22 06:00:00 11.1 12 Sudoeste 18 Sudoeste 0.6 -- -- 96
2019-09-22 05:00:00 10.9 13 Oeste 44 Oeste 0.6 -- -- 95
2019-09-22 04:00:00 12.8 29 Oeste 48 Oeste 0.4 -- -- 93
2019-09-22 03:00:00 16.6 25 Sur 41 Sur 0.2 -- -- 80
2019-09-22 02:00:00 17.1 30 Sur 41 Sur 0 -- -- 77
2019-09-22 01:00:00 16.7 27 Sudeste 41 Sudeste 0 -- -- 76
2019-09-22 00:00:00 16.8 27 Sur 37 Sur 0 -- -- 73
2019-09-21 23:00:00 16.7 21 Sur 28 Sur 0 -- -- 75
2019-09-21 22:00:00 16.3 21 Sudeste 33 Sudeste 0 -- -- 77
2019-09-21 21:00:00 16.8 26 Sudeste 39 Sur 0 -- -- 75
2019-09-21 20:00:00 18.2 23 Sur 41 Sur 0 -- -- 70
2019-09-21 19:00:00 18.8 27 Sur 41 Sur 0 -- -- 68
2019-09-21 18:00:00 19.2 26 Sur 45 Sur 0 -- -- 66
2019-09-21 17:00:00 19.1 32 Sur 43 Sur 0.2 -- -- 71
2019-09-21 16:00:00 17.4 21 Sur 36 Sur 0 -- -- 79
2019-09-21 15:00:00 17.7 20 Sur 33 Sur 0.2 -- -- 76
2019-09-21 14:00:00 18.8 27 Sur 41 Sur 0 -- -- 66
2019-09-21 13:00:00 19.4 26 Sur 42 Sur 0 -- -- 60
2019-09-21 12:00:00 19.7 25 Sur 45 Sur 0 -- -- 58
2019-09-21 11:00:00 18.4 27 Sur 39 Sur 0 -- -- 61
2019-09-21 10:00:00 17.2 23 Sur 36 Sudeste 0 -- -- 67
2019-09-21 09:00:00 15.4 23 Sudeste 31 Sur 0 -- -- 73
2019-09-21 08:00:00 13.5 19 Sudeste 31 Sudeste 0 -- -- 83
2019-09-21 07:00:00 14 12 Sur 24 Sur 0 -- -- 81
2019-09-21 06:00:00 15.1 17 Sudeste 25 Sur 0 -- -- 78
2019-09-21 05:00:00 15.9 21 Sur 30 Sudeste 0 -- -- 77
2019-09-21 04:00:00 16.5 16 Sudeste 26 Sudeste 0 -- -- 76
2019-09-21 03:00:00 16.9 13 Sur 22 Sur 0 -- -- 76
2019-09-21 02:00:00 17.3 15 Sudeste 19 Sudeste 0 -- -- 78
2019-09-21 01:00:00 17.4 7 Sudoeste 24 Sudeste 0 -- -- 77
2019-09-21 00:00:00 17.4 20 Sudeste 29 Sudeste 0 -- -- 75
2019-09-20 23:00:00 18.2 17 Sudeste 24 Sudeste 0 -- -- 73
2019-09-20 22:00:00 18.9 19 Sur 40 Sudeste 0 -- -- 70
2019-09-20 21:00:00 20.4 33 Sudeste 47 Norte 0 -- -- 54
2019-09-20 20:00:00 22.2 22 Sudeste 35 Sur 0 -- -- 53
2019-09-20 19:00:00 23.9 29 Sudeste 43 Sudeste 0 -- -- 46
2019-09-20 18:00:00 24.1 34 Sudeste 45 Sudeste 0 -- -- 48
2019-09-20 17:00:00 25.4 28 Sudeste 44 Sudeste 0 -- -- 43
2019-09-20 16:00:00 24.9 29 Sudeste 44 Sudeste 0 -- -- 46
2019-09-20 15:00:00 24.6 28 Sudeste 46 Sudeste 0 -- -- 49
2019-09-20 14:00:00 23.8 28 Sur 46 Sur 0 -- -- 49
2019-09-20 13:00:00 22.5 31 Sur 42 Sur 0 -- -- 54
2019-09-20 12:00:00 21.7 33 Sudeste 50 Sudeste 0 -- -- 56
2019-09-20 11:00:00 22.4 28 Sudeste 39 Sudeste 0 -- -- 51
2019-09-20 10:00:00 19.9 26 Sur 36 Sur 0 -- -- 64
2019-09-20 09:00:00 18.5 27 Sur 35 Sur 0 -- -- 70
2019-09-20 08:00:00 18.5 23 Sudeste 33 Sudeste 0 -- -- 69
2019-09-20 07:00:00 17.8 21 Sudeste 26 Sur 0 -- -- 73
2019-09-20 06:00:00 18 22 Sudeste 26 Sudeste 0 -- -- 70
2019-09-20 05:00:00 16.9 19 Sudeste 23 Sudeste 0 -- -- 74
2019-09-20 04:00:00 16.1 18 Sudeste 28 Sudeste 0 -- -- 75
2019-09-20 03:00:00 17.3 19 Sudeste 22 Sudeste 0 -- -- 68
2019-09-20 02:00:00 16.8 18 Sudeste 23 Sudeste 0 -- -- 72
2019-09-20 01:00:00 17.1 17 Sudeste 21 Sudeste 0 -- -- 72
2019-09-20 00:00:00 18.5 15 Sudeste 22 Sudeste 0 -- -- 69
2019-09-19 23:00:00 19 15 Sudeste 22 Sudeste 0 -- -- 67
2019-09-19 22:00:00 20.5 13 Sudeste 19 Sudeste 0 -- -- 58
2019-09-19 21:00:00 21.5 12 Sudeste 20 Este 0 -- -- 56
2019-09-19 20:00:00 24 13 Sudeste 25 Sur 0 -- -- 43
2019-09-19 19:00:00 24.5 19 Sur 31 Sur 0 -- -- 41
2019-09-19 18:00:00 27 4 Sudeste 25 Oeste 0 -- -- 32
2019-09-19 17:00:00 27.3 11 Oeste 28 Oeste 0 -- -- 31
2019-09-19 16:00:00 26.7 10 Oeste 32 Oeste 0 -- -- 34
2019-09-19 15:00:00 26 12 Oeste 28 Oeste 0 -- -- 38
2019-09-19 14:00:00 25 5 Sur 15 Sudoeste 0 -- -- 42
2019-09-19 13:00:00 23.4 3 Nordeste 10 Nordeste 0 -- -- 49
2019-09-19 12:00:00 21.9 6 Nordeste 9 Norte 0 -- -- 53
2019-09-19 11:00:00 20.3 7 Este 10 Este 0 -- -- 57
2019-09-19 10:00:00 16.7 6 Sudeste 11 Sudeste 0 -- -- 74
2019-09-19 09:00:00 13 4 Este 12 Sudeste 0 -- -- 84
2019-09-19 08:00:00 11.6 6 Sudeste 9 Sudeste 0 -- -- 86
2019-09-19 07:00:00 12.4 9 Sudeste 15 Sudeste 0 -- -- 83
2019-09-19 06:00:00 13 13 Sudeste 15 Sudeste 0 -- -- 82
2019-09-19 05:00:00 13.1 10 Sudeste 13 Sudeste 0 -- -- 82
2019-09-19 04:00:00 13.8 5 Sudeste 11 Sudeste 0 -- -- 80
2019-09-19 03:00:00 14.1 10 Sudeste 17 Sudeste 0 -- -- 82
2019-09-19 02:00:00 15 12 Sudeste 15 Sudeste 0 -- -- 76
2019-09-19 01:00:00 16 11 Sudeste 13 Sudeste 0 -- -- 75
2019-09-19 00:00:00 16.7 10 Sudeste 14 Sudeste 0 -- -- 73
2019-09-18 23:00:00 17.6 8 Sudeste 12 Sudeste 0 -- -- 69
2019-09-18 22:00:00 19.9 3 Nordeste 12 Norte 0 -- -- 57
2019-09-18 21:00:00 20.5 5 Noroeste 16 Noroeste 0 -- -- 50
2019-09-18 20:00:00 23.4 10 Noroeste 18 Noroeste 0 -- -- 44
2019-09-18 19:00:00 24.8 11 Noroeste 21 Noroeste 0 -- -- 41
2019-09-18 18:00:00 25.5 6 Sur 24 Sudoeste 0 -- -- 40
2019-09-18 17:00:00 25.2 12 Sudoeste 35 Oeste 0 -- -- 41
2019-09-18 16:00:00 23.8 12 Noroeste 21 Oeste 0 -- -- 46
2019-09-18 15:00:00 24 10 Oeste 24 Oeste 0 -- -- 45
2019-09-18 14:00:00 23.2 9 Oeste 18 Sudoeste 0 -- -- 46
2019-09-18 13:00:00 22.1 8 Sudoeste 15 Sur 0 -- -- 52
2019-09-18 12:00:00 20.3 6 Nordeste 10 Noroeste 0 -- -- 62
2019-09-18 11:00:00 18 4 Este 16 Sudeste 0 -- -- 70
2019-09-18 10:00:00 15.2 11 Sudeste 16 Sudeste 0 -- -- 89
2019-09-18 09:00:00 13.7 6 Sudeste 10 Sudeste 0 -- -- 93
2019-09-18 08:00:00 13.4 5 Sudeste 10 Sudeste 0 -- -- 93
2019-09-18 07:00:00 13.1 4 Este 5 Este 0 -- -- 91
2019-09-18 06:00:00 12.9 5 Nordeste 9 Nordeste 0 -- -- 91
2019-09-18 05:00:00 13.6 4 Norte 14 Oeste 0 -- -- 89
2019-09-18 04:00:00 14.4 14 Oeste 26 Oeste 0 -- -- 87
2019-09-18 03:00:00 14.8 20 Este 28 Este 0 -- -- 85
2019-09-18 02:00:00 14.3 11 Sudeste 15 Sudeste 0 -- -- 84
2019-09-18 01:00:00 14.4 9 Sudeste 22 Sudeste 0 -- -- 82
2019-09-18 00:00:00 14.2 17 Sudeste 27 Este 0 -- -- 85
2019-09-17 23:00:00 14.5 4 Este 20 Oeste 0 -- -- 84
2019-09-17 22:00:00 15.1 19 Oeste 52 Sudoeste 0 -- -- 79
2019-09-17 21:00:00 15.7 34 Sudoeste 63 Sur 0.6 -- -- 81